• Join FlightAware (Why Join?)
  • Login
  • US Flag 
01:33PM EDT


 

Airport Tracker/Info


-or-


 

Live Flight TrackerFlight Track Log ✈ SWA2690 ✈ 07-Apr-2012 ✈ KFLL - KMDW

Flight Track Log - Related Links

Times and Time Zones

All times are in EDT time to prevent confusion due to time zone crossing. See the SWA2690 flight status page for this flight to view local times or setup timezone preferences in your user account.

Time Position Orientation Groundspeed Altitude Reporting Facility
EDT Latitude Longitude Course Direction KTS MPH feet Rate Location/Type
02:42PM 26.2782 -80.6474 111° Southeast  Level FlightAware Approximate
02:43PM 26.3671 -80.6947 117° Southeast  Level FlightAware Approximate
02:44PM 26.4499 -80.7541 121° Southeast  Level FlightAware Approximate
02:45PM 26.5368 -80.8056 125° Southeast  Level FlightAware Approximate
02:46PM 26.6239 -80.8565 128° Southeast  Level FlightAware Approximate
02:47PM 26.7065 -80.9165 130° Southeast  Level FlightAware Approximate
02:48PM 26.7769 -80.9936 130° Southeast  Level FlightAware Approximate
02:49PM 26.0764 -80.0742 85° East 196 226 3,600  Level Miami Center
02:50PM 26.0819 -80.0028 87° East 237 273 5,000 1,620 Climbing Miami Center
02:51PM 26.0856 -79.9311 359° North 234 269 7,000 1,020 Climbing Miami Center
02:52PM 26.1400 -79.9325 295° West 262 302 7,000 120 Level Miami Center
02:53PM 26.1739 -80.0119 282° West 284 327 7,300 480 Climbing Miami Center
02:54PM 26.1925 -80.1097 283° West 297 342 8,000 420 Climbing Miami Center
02:55PM 26.2094 -80.1936 283° West 293 337 8,200 480 Climbing Miami Center
02:56PM 26.2283 -80.2822 285° West 295 339 9,000 300 Climbing Miami Center
02:57PM 26.2511 -80.3756 285° West 299 344 8,900 900 Descending Miami Center
02:59PM 26.2814 -80.5039 293° West 325 374 11,300 1,740 Climbing Miami Center
03:00PM 26.3147 -80.5928 314° West 338 389 13,200 2,700 Climbing Miami Center
03:01PM 26.3917 -80.6811 328° Northwest 354 407 16,700 3,000 Climbing Miami Center
03:02PM 26.4717 -80.7369 328° Northwest 370 426 19,200 2,580 Climbing Miami Center
03:03PM 26.5722 -80.8078 327° Northwest 385 443 21,900 2,400 Climbing Miami Center
03:04PM 26.6561 -80.8686 329° Northwest 391 450 24,100 2,100 Climbing Miami Center
03:05PM 26.7628 -80.9397 331° Northwest 399 459 26,200 1,800 Climbing Miami Center
03:06PM 26.8569 -80.9989 331° Northwest 411 473 27,700 1,560 Climbing Miami Center
03:07PM 26.9636 -81.0656 331° Northwest 422 486 29,400 1,860 Climbing Miami Center
03:08PM 27.0683 -81.1300 332° Northwest 427 491 31,500 1,920 Climbing Miami Center
03:09PM 27.1708 -81.1919 333° Northwest 427 491 33,300 1,680 Climbing Miami Center
03:10PM 27.2733 -81.2519 332° Northwest 427 491 34,900 1,560 Climbing Miami Center
03:11PM 27.3758 -81.3144 331° Northwest 422 486 36,500 1,320 Climbing Miami Center
03:12PM 27.4761 -81.3767 333° Northwest 417 480 37,600 720 Climbing Miami Center
03:13PM 27.5889 -81.4419 330° Northwest 412 474 38,000 180 Climbing Miami Center
03:14PM 27.6892 -81.5069 333° Northwest 407 468 38,000  Level Miami Center
03:15PM 27.7894 -81.5650 330° Northwest 412 474 38,000  Level Miami Center
03:16PM 27.8794 -81.6228 332° Northwest 412 474 38,000  Level Miami Center
03:18PM 28.0947 -81.7514 342° North 416 479 38,000  Level Jacksonville Center
03:19PM 28.2058 -81.7928 343° North 416 479 38,000  Level Jacksonville Center
03:20PM 28.3186 -81.8314 341° North 416 479 38,000  Level Jacksonville Center
03:21PM 28.4192 -81.8706 344° North 416 479 38,000  Level Jacksonville Center
03:22PM 28.5300 -81.9072 342° North 416 479 38,000  Level Jacksonville Center
03:23PM 28.6411 -81.9486 346° North 421 484 38,000  Level Jacksonville Center
03:24PM 28.7644 -81.9831 342° North 421 484 38,000  Level Jacksonville Center
03:25PM 28.8753 -82.0247 343° North 421 484 38,000  Level Jacksonville Center
03:26PM 28.9675 -82.0572 344° North 415 478 38,000  Level Jacksonville Center
03:27PM 29.0783 -82.0942 344° North 401 461 38,000  Level Jacksonville Center
03:28PM 29.1892 -82.1314 343° North 401 461 38,000  Level Jacksonville Center
03:29PM 29.2958 -82.1686 346° North 401 461 38,000  Level Jacksonville Center
03:30PM 29.4067 -82.2014 346° North 401 461 38,100 480 Climbing Jacksonville Center
03:31PM 29.5175 -82.2339 346° North 401 461 39,000 420 Climbing Jacksonville Center
03:32PM 29.6283 -82.2667 346° North 401 461 39,000  Level Jacksonville Center
03:33PM 29.7389 -82.2994 344° North 401 461 39,000  Level Jacksonville Center
03:34PM 29.8353 -82.3322 346° North 396 456 39,000  Level Jacksonville Center
03:35PM 29.9544 -82.3675 344° North 401 461 39,000  Level Jacksonville Center
03:36PM 30.0714 -82.4053 344° North 391 450 39,000  Level Jacksonville Center
03:37PM 30.1800 -82.4408 346° North 391 450 39,000  Level Jacksonville Center
03:38PM 30.2867 -82.4717 344° North 396 456 39,000  Level Jacksonville Center
03:39PM 30.3933 -82.5072 345° North 396 456 39,000  Level Jacksonville Center
03:40PM 30.5000 -82.5406 346° North 396 456 39,000  Level Jacksonville Center
03:41PM 30.6044 -82.5717 345° North 396 456 39,000  Level Jacksonville Center
03:42PM 30.7131 -82.6050 345° North 396 456 39,000  Level Jacksonville Center
03:43PM 30.8194 -82.6386 345° North 396 456 39,000  Level Jacksonville Center
03:44PM 30.9283 -82.6722 344° North 396 456 39,000  Level Jacksonville Center
03:45PM 31.0347 -82.7083 347° North 396 456 39,000  Level Jacksonville Center
03:46PM 31.1456 -82.7372 343° North 396 456 39,000  Level Jacksonville Center
03:47PM 31.3356 -82.8039 346° North 403 464 39,000  Level Atlanta Center
03:48PM 31.4506 -82.8364 345° North 403 464 39,000  Level Atlanta Center
03:49PM 31.5594 -82.8714 345° North 403 464 39,000  Level Atlanta Center
03:50PM 31.6706 -82.9067 346° North 403 464 39,000  Level Atlanta Center
03:51PM 31.7814 -82.9394 345° North 403 464 39,000  Level Atlanta Center
03:52PM 31.8903 -82.9747 345° North 403 464 39,000  Level Atlanta Center
03:53PM 32.0011 -83.0103 345° North 403 464 39,000  Level Atlanta Center
03:54PM 32.1100 -83.0458 345° North 403 464 39,000  Level Atlanta Center
03:55PM 32.2208 -83.0814 345° North 403 464 39,000  Level Atlanta Center
03:56PM 32.3297 -83.1169 346° North 403 464 39,000  Level Atlanta Center
03:57PM 32.4406 -83.1503 343° North 403 464 39,000  Level Atlanta Center
03:58PM 32.5472 -83.1886 345° North 403 464 39,000  Level Atlanta Center
03:59PM 32.6539 -83.2222 345° North 403 464 39,000  Level Atlanta Center
04:00PM 32.7647 -83.2583 344° North 403 464 39,000  Level Atlanta Center
04:01PM 32.8714 -83.2944 344° North 403 464 39,000  Level Atlanta Center
04:02PM 32.9781 -83.3306 345° North 403 464 39,000  Level Atlanta Center
04:03PM 33.0931 -83.3669 346° North 398 458 39,000  Level Atlanta Center
04:04PM 33.1997 -83.3983 344° North 398 458 39,000  Level Atlanta Center
04:05PM 33.3064 -83.4347 344° North 398 458 39,000  Level Atlanta Center
04:06PM 33.4089 -83.4689 345° North 393 452 39,000  Level Atlanta Center
04:07PM 33.5156 -83.5031 345° North 393 452 39,000  Level Atlanta Center
04:08PM 33.6200 -83.5375 345° North 393 452 39,000  Level Atlanta Center
04:09PM 33.7244 -83.5717 345° North 387 445 39,000  Level Atlanta Center
04:10PM 33.8289 -83.6061 344° North 387 445 39,000  Level Atlanta Center
04:11PM 33.9333 -83.6433 346° North 382 440 39,000  Level Atlanta Center
04:12PM 34.0378 -83.6753 344° North 377 434 39,000  Level Atlanta Center
04:13PM 34.1425 -83.7125 345° North 382 440 39,000  Level Atlanta Center
04:14PM 34.2489 -83.7472 344° North 382 440 39,000  Level Atlanta Center
04:15PM 34.3511 -83.7822 345° North 382 440 39,000  Level Atlanta Center
04:16PM 34.4453 -83.8122 344° North 382 440 39,000  Level Atlanta Center
04:17PM 34.5517 -83.8497 343° North 382 440 39,000  Level Atlanta Center
04:18PM 34.6542 -83.8872 344° North 382 440 39,000  Level Atlanta Center
04:19PM 34.7542 -83.9225 345° North 376 433 39,000  Level Atlanta Center
04:20PM 34.8586 -83.9578 344° North 376 433 39,000  Level Atlanta Center
04:21PM 34.9608 -83.9931 344° North 376 433 39,000  Level Atlanta Center
04:22PM 35.0631 -84.0286 345° North 376 433 39,000  Level Atlanta Center
04:23PM 35.1694 -84.0642 344° North 376 433 39,000  Level Atlanta Center
04:24PM 35.2758 -84.1025 344° North 381 438 39,000  Level Atlanta Center
04:25PM 35.3803 -84.1381 344° North 381 438 39,000  Level Atlanta Center
04:26PM 35.4844 -84.1739 344° North 381 438 39,000 420 Level Atlanta Center
04:27PM 35.5867 -84.2097 344° North 381 438 39,900 480 Climbing Atlanta Center
04:28PM 35.6911 -84.2458 344° North 381 438 40,000  Climbing Atlanta Center
04:29PM 35.7953 -84.2819 344° North 381 438 40,000  Level Atlanta Center
04:30PM 35.8994 -84.3181 344° North 381 438 40,000  Level Atlanta Center
04:32PM 36.1083 -84.3922 344° North 381 438 40,000  Level Indianapolis Center
04:33PM 36.2103 -84.4294 344° North 381 438 40,000  Level Indianapolis Center
04:34PM 36.3142 -84.4667 344° North 381 438 40,000  Level Indianapolis Center
04:35PM 36.4183 -84.5042 345° North 381 438 40,000  Level Indianapolis Center
04:36PM 36.5222 -84.5389 342° North 376 433 40,000  Level Indianapolis Center
04:37PM 36.6242 -84.5792 345° North 376 433 40,000  Level Indianapolis Center
04:38PM 36.7281 -84.6142 343° North 381 438 40,000  Level Indianapolis Center
04:39PM 36.8342 -84.6547 345° North 381 438 40,000  Level Indianapolis Center
04:40PM 36.9381 -84.6900 343° North 381 438 40,000  Level Indianapolis Center
04:41PM 37.0419 -84.7306 342° North 381 438 40,000  Level Indianapolis Center
04:42PM 37.1439 -84.7711 345° North 381 438 40,000  Level Indianapolis Center
04:43PM 37.2561 -84.8094 344° North 381 438 40,000  Level Indianapolis Center
04:44PM 37.3600 -84.8478 344° North 379 436 40,000  Level Indianapolis Center
04:45PM 37.4639 -84.8861 344° North 379 436 40,000  Level Indianapolis Center
04:46PM 37.5656 -84.9222 343° North 379 436 40,000  Level Indianapolis Center
04:47PM 37.6653 -84.9606 344° North 374 430 40,000  Level Indianapolis Center
04:48PM 37.7711 -84.9994 344° North 383 441 40,000 -180 Level Indianapolis Center
04:49PM 37.8750 -85.0383 344° North 383 441 39,700 -660 Descending Indianapolis Center
04:50PM 37.9789 -85.0772 344° North 383 441 38,700 -1,020 Descending Indianapolis Center
04:51PM 38.0806 -85.1136 344° North 377 434 37,700 -960 Descending Indianapolis Center
04:52PM 38.1803 -85.1503 343° North 372 428 36,800 -900 Descending Indianapolis Center
04:53PM 38.2819 -85.1894 346° North 372 428 35,900 -900 Descending Indianapolis Center
04:54PM 38.3711 -85.2181 344° North 377 434 35,000 -960 Descending Indianapolis Center
04:55PM 38.4728 -85.2547 344° North 377 434 34,000 -540 Descending Indianapolis Center
04:56PM 38.5725 -85.2917 342° North 377 434 34,000 -120 Level Indianapolis Center
04:57PM 38.6656 -85.3311 345° North 372 428 33,800 -660 Descending Indianapolis Center
04:58PM 38.7631 -85.3653 343° North 367 422 32,700 -1,080 Descending Indianapolis Center
04:59PM 38.8628 -85.4053 344° North 367 422 31,700 -1,020 Descending Indianapolis Center
05:00PM 38.9622 -85.4425 343° North 360 414 30,700 -900 Descending Indianapolis Center
05:01PM 39.0678 -85.4853 344° North 360 414 30,000 -900 Descending Indianapolis Center
05:03PM 39.1631 -85.5200 344° North 360 414 29,000 -540 Descending Indianapolis Center
05:03PM 39.2628 -85.5578 343° North 360 414 29,000  Level Indianapolis Center
05:04PM 39.3600 -85.5953 344° North 360 414 29,000  Level Indianapolis Center
05:05PM 39.4594 -85.6331 342° North 360 414 29,000  Level Indianapolis Center
05:06PM 39.5589 -85.6739 344° North 360 414 29,000  Level Indianapolis Center
05:09PM 39.7733 -85.7547 342° North 379 436 29,000 -420 Level Chicago Center
05:10PM 39.8683 -85.7956 343° North 365 420 27,700 -1,620 Descending Chicago Center
05:11PM 39.9569 -85.8317 344° North 343 395 25,800 -1,800 Descending Chicago Center
05:12PM 40.0436 -85.8650 339° North 337 388 24,100 -900 Descending Chicago Center
05:13PM 40.1325 -85.9092 336° Northwest 331 381 24,000 -120 Descending Chicago Center
05:14PM 40.2322 -85.9667 337° Northwest 342 394 23,900 -600 Descending Chicago Center
05:15PM 40.3214 -86.0167 336° Northwest 348 400 22,800 -1,080 Descending Chicago Center
05:16PM 40.4061 -86.0669 337° Northwest 343 395 21,800 -1,020 Descending Chicago Center
05:17PM 40.4950 -86.1172 337° Northwest 338 389 20,800 -1,020 Descending Chicago Center
05:18PM 40.5756 -86.1625 336° Northwest 338 389 19,800 -1,020 Descending Chicago Center
05:19PM 40.6583 -86.2106 338° Northwest 325 374 18,800 -1,020 Descending Chicago Center
05:20PM 40.7386 -86.2533 337° Northwest 313 360 17,800 -1,140 Descending Chicago Center
05:21PM 40.8003 -86.2886 335° Northwest 307 353 16,600 -1,620 Descending Chicago Center
05:22PM 40.8892 -86.3422 338° Northwest 307 353 14,600 -1,920 Descending Chicago Center
05:23PM 40.9653 -86.3828 335° Northwest 307 353 12,800 -1,800 Descending Chicago Center
05:24PM 41.0394 -86.4289 314° West 299 344 11,100 -960 Descending Chicago Center
05:25PM 41.0956 -86.5064 312° West 287 330 10,900 -540 Descending Chicago Center
05:26PM 41.1389 -86.5706 310° West 277 319 10,100 -420 Descending Chicago Center
05:27PM 41.1931 -86.6567 312° West 292 336 10,100  Level Chicago Center
05:28PM 41.2600 -86.7561 308° West 305 351 10,100  Level Chicago Center
05:29PM 41.3100 -86.8425 312° West 311 358 10,100 -60 Level Chicago Center
05:30PM 41.3639 -86.9236 311° West 306 352 10,000 -540 Descending Chicago Center
05:31PM 41.4111 -86.9964 302° West 281 323 9,100 -1,380 Descending Chicago Center
05:33PM 41.5000 -87.1833 294° West 266 306 5,300 -1,500 Descending Chicago TRACON
05:34PM 41.5333 -87.2833 298° West 266 306 4,000 -660 Descending Chicago TRACON
05:35PM 41.5667 -87.3667 298° West 261 300 4,000  Level Chicago TRACON
05:36PM 41.6000 -87.4500 315° West 262 302 4,000  Level Chicago TRACON
05:37PM 41.6500 -87.5167 304° West 264 304 4,000 -360 Level Chicago TRACON
05:38PM 41.6833 -87.5833 315° West 226 260 3,400 -780 Descending Chicago TRACON
05:39PM 41.7333 -87.6500 360° North 228 262 2,500 -540 Descending Chicago TRACON
05:40PM 41.7833 -87.6500 323° Northwest 186 214 2,400 -420 Descending Chicago TRACON
05:41PM 41.8167 -87.6833 246° West 154 177 1,800 -720 Descending Chicago TRACON
05:42PM 41.8000 -87.7333 246° West 130 150 1,000 -840 Descending Chicago TRACON